Caistor, United Kingdom
Current Conditions -  °F | °C
As of 7:20 PM on Thursday 23 Oct 2014 (Local Time) from EGNJ Reporting Station
Broken Clouds Broken Clouds  
Wind Chill: 59°   Ceiling: 3200
Heat Index: 59°   Visibility: 6mi
Dew Point: 55°   Wind: 17mph
Humidity: 88%   Direction: 200°SSW
Pressure: 29.91"   Gusts: NA
Location:  53.5°N, 0.32°W
Report Text: EGNJ 231820Z 20015KT 9999 FEW025 BKN032 15/13 Q1013
Loading
Personal Weather Stations






























Interactive Weather Map
Tropical Storm Tracking
New forecast layout! Learn more

10-Day Weather Forecast

Advertisements
Track Severe Weather on mobile